Weather observations for the past three days for
Snyder, Winston Field Airport
Imperial (Metric)
Date Time (cdt) Wind (mph) Vis. (mi.) Weather Sky Cond. Temperature (ºF) Relative Humidity Wind Chill (°F) Heat Index (°F) Pressure Precipitation (in)
Air Dwpt 6 hour altimeter (in) sea level (mb) 1 hr 3 hr 6 hr
Max. Min.
09 14:15 SW 7 G 17 10.00 Fair CLR 88.3 50.9 28% 86 29.86 0.0
09 13:55 S 5 10.00 Fair CLR 88 52.5 30% 86 29.87 0.0
09 13:35 S 9 G 18 10.00 Fair CLR 87.1 53.8 32% 85 29.88 0.0
09 13:15 S 12 G 16 10.00 Fair CLR 86.7 54.3 33% 85 29.89 0.0
09 12:55 SW 7 G 22 10.00 Fair CLR 84.9 54.5 35% 83 29.9 0.0
09 12:35 SW 10 G 16 10.00 Fair CLR 83.5 53.8 36% 82 29.91 0.0
09 12:15 SW 10 10.00 Fair CLR 82.8 54.1 37% 82 29.91 0.0
09 11:55 SW 12 10.00 Fair CLR 82 55.4 40% 81 29.91 0.0
09 11:35 S 9 10.00 Fair CLR 80.4 56.8 45% 81 29.92 0.0
09 11:15 SW 13 G 17 10.00 Fair CLR 79 57.6 48% 80 29.92 0.0
09 10:55 SW 12 10.00 Fair CLR 77.4 58.1 52% 79 29.93 0.0
09 10:35 SW 8 10.00 Fair CLR 75.2 58.6 57% 78 29.93 0.0
09 10:15 SW 10 10.00 Fair CLR 73.4 59.5 62% 29.93 0.0
09 09:55 SW 10 10.00 Fair CLR 71.4 60.6 69% 29.93 0.0
09 09:35 S 9 10.00 Fair CLR 69.3 61.2 76% 29.94 0.0
09 09:15 S 10 10.00 Fair CLR 67.8 61.5 80% 29.93 0.0
09 08:55 S 9 10.00 Fair CLR 66.6 62.6 87% 29.94 0.0
09 08:35 S 10 10.00 Fair CLR 65.1 63.7 95% 29.93 0.0
09 08:15 S 8 7.00 Fair CLR 63.3 62.6 98% 29.93 0.0
09 07:55 S 7 4.00 Fog/Mist CLR 61.7 61 98% 29.93 0.0
09 07:35 S 3 3.00 Fog/Mist CLR 60.4 59.7 97% 29.92 0.0
09 07:15 SW 3 4.00 Fog/Mist CLR 60.8 60.1 98% 29.92 0.0
09 06:55 S 3 5.00 Fog/Mist CLR 61.2 60.4 98% 29.91 0.0
09 06:35 Calm 7.00 Fair CLR 61.3 60.4 97% 29.9 0.0
09 06:15 Calm 7.00 Fair CLR 61.7 61 98% 29.89 0.0
09 05:55 S 5 7.00 Fair CLR 62.1 61.5 98% 29.88 0.0
09 05:35 S 6 10.00 Fair CLR 61.9 61.2 98% 29.88 0.0
09 05:15 S 3 7.00 Fair CLR 62.6 60.6 93% 29.88 0.0
09 04:55 Calm 10.00 Fair CLR 62.8 59.9 90% 29.88 0.0
09 04:35 S 6 7.00 Fair CLR 62.6 59.4 89% 29.87 0.0
09 04:15 SE 6 10.00 Fair CLR 62.4 58.6 88% 29.88 0.0
09 03:55 SE 6 10.00 Fair CLR 62.6 57.6 84% 29.87 0.0
09 03:35 SE 6 10.00 Fair CLR 65.1 57.2 76% 29.88 0.0
09 03:15 SW 3 10.00 Fair CLR 66 57.4 74% 29.88 0.0
09 02:55 Calm 10.00 Fair CLR 65.8 57.4 74% 29.88 0.0
09 02:35 SW 5 10.00 Fair CLR 66 57.4 74% 29.88 0.0
09 02:15 W 3 10.00 Fair CLR 66.6 57.6 73% 29.88 0.0
09 01:55 SW 6 10.00 Fair CLR 67.3 57.6 71% 29.87 0.0
09 01:35 SW 6 10.00 Fair CLR 68 57.9 70% 29.87 0.0
09 01:15 W 3 10.00 Fair CLR 69.1 57.9 68% 29.87 0.0
09 00:55 SW 6 10.00 Fair CLR 70 58.1 66% 29.88 0.0
09 00:35 SW 6 10.00 Fair CLR 71.1 58.3 64% 29.89 0.0
09 00:15 S 6 10.00 Partly Cloudy SCT075 72.5 58.5 61% 29.9 0.0
08 23:55 SW 6 10.00 Partly Cloudy SCT075 SCT100 73.4 58.5 60% 29.91 0.0
08 23:35 W 3 10.00 Partly Cloudy SCT037 SCT044 SCT075 73.6 58.6 60% 29.91 0.0
08 23:15 N 10 G 18 10.00 Partly Cloudy SCT037 SCT044 72.9 58.8 62% 29.91 0.0
08 22:55 S 9 10.00 Fair CLR 73.4 59 61% 29.85 0.0
08 22:35 S 12 G 17 10.00 Fair CLR 73.9 59 60% 29.84 0.0
08 22:15 S 13 10.00 Fair CLR 74.8 58.6 57% 29.83 0.0
08 21:55 S 16 10.00 Fair CLR 75.7 58.1 54% 78 29.82 0.0
08 21:35 S 15 G 20 10.00 Fair CLR 76.6 57 51% 78 29.81 0.0
08 21:15 S 8 10.00 Fair CLR 77.9 56.5 48% 79 29.81 0.0
08 20:55 S 13 G 16 10.00 Fair CLR 78.8 55.9 45% 80 29.8 0.0
08 20:35 S 9 10.00 Fair CLR 80.4 55.4 42% 80 29.79 0.0
08 20:15 S 12 10.00 Fair CLR 83.1 51.1 33% 82 29.79 0.0
08 19:55 S 5 10.00 Fair CLR 84.9 42.4 22% 82 29.78 0.0
08 19:35 S 3 10.00 Fair CLR 85.1 41.5 22% 82 29.78 0.0
08 19:15 Calm 10.00 Fair CLR 85.8 41.9 21% 83 29.78 0.0
08 18:55 W 3 10.00 Fair CLR 86 40.5 20% 83 29.78 0.0
08 18:35 Calm 10.00 Fair CLR 85.8 41.7 21% 83 29.78 0.0
08 18:15 NW 3 10.00 Fair CLR 85.3 44.4 24% 83 29.77 0.0
08 17:55 NW 7 10.00 Fair CLR 85.5 45.9 25% 83 29.78 0.0
08 17:35 Calm 10.00 Fair CLR 84.9 47.7 27% 83 29.78 0.0
08 17:15 W 7 10.00 Fair CLR 84.6 51.4 32% 83 29.77 0.0
08 16:55 S 6 10.00 Fair CLR 83.8 52.9 34% 82 29.78 0.0
08 16:35 SW 6 10.00 Fair CLR 83.3 53.6 36% 82 29.79 0.0
08 16:15 Calm 10.00 Fair CLR 82.4 54.3 38% 82 29.8 0.0
08 15:55 SW 3 10.00 Fair CLR 81.9 54.5 39% 81 29.81 0.0
08 15:35 W 10 10.00 Fair CLR 81 56.5 43% 81 29.82 0.0
08 15:15 Calm 10.00 Fair CLR 80.1 56.8 45% 80 29.83 0.0
08 14:55 Calm 10.00 Fair CLR 79.5 57.7 47% 80 29.84 0.0
08 14:35 W 9 10.00 Fair CLR 78.3 57.4 49% 79 29.84 0.0
08 14:15 SW 7 10.00 Fair CLR 78.4 57.9 49% 80 29.86 0.0
08 13:55 SW 9 10.00 Fair CLR 76.8 57.6 52% 79 29.86 0.0
08 13:35 SW 7 10.00 Fair CLR 76.1 57.2 52% 78 29.87 0.0
08 13:15 SW 7 10.00 Fair CLR 75 57 54% 78 29.88 0.0
08 12:55 S 12 10.00 Fair CLR 74.3 57.4 56% 29.89 0.0
08 12:35 S 7 10.00 Fair CLR 73.6 57.4 57% 29.91 0.0
08 12:15 SW 9 10.00 Fair CLR 72 57.2 60% 29.91 0.0
08 11:55 SW 12 10.00 Partly Cloudy SCT027 70.9 57.2 62% 29.93 0.0
08 11:35 W 7 10.00 Fair CLR 68.9 56.8 66% 29.93 0.0
08 11:15 SW 7 10.00 Partly Cloudy SCT018 66.9 56.7 70% 29.94 0.0
08 10:55 W 5 10.00 Overcast OVC016 65.7 56.7 73% 29.95 0.0
08 10:35 SW 8 10.00 Overcast OVC014 64.9 56.3 74% 29.96 0.0
08 10:15 SW 7 10.00 Overcast OVC012 64 56.1 76% 29.95 0.0
08 09:55 SW 6 10.00 Overcast OVC010 62.8 55.2 76% 29.96 0.0
08 09:35 S 6 10.00 Overcast OVC010 62.1 54.5 76% 29.96 0.0
08 09:15 S 8 10.00 Overcast OVC012 61.7 54.1 76% 29.97 0.0
08 08:55 S 7 10.00 Overcast OVC012 61.3 54 77% 29.97 0.0
08 08:35 S 9 10.00 Overcast OVC010 61.3 53.6 76% 29.96 0.0
08 08:15 S 8 10.00 Overcast OVC010 61 53.6 77% 29.96 0.0
08 07:55 S 6 10.00 Overcast OVC010 60.6 52.7 75% 29.96 0.0
08 07:35 S 7 10.00 Overcast OVC010 60.4 51.6 73% 29.96 0.0
08 07:15 S 7 10.00 Overcast OVC013 60.1 51.4 73% 29.96 0.0
08 06:55 S 7 10.00 Overcast OVC011 59.9 53.2 79% 29.96 0.0
08 06:35 S 8 10.00 Overcast OVC009 60.1 52.5 76% 29.96 0.0
08 06:15 S 3 10.00 Overcast OVC011 60.1 50.2 70% 29.96 0.0
08 05:55 S 3 10.00 Overcast OVC011 59.9 49.3 68% 29.96 0.0
08 05:35 Calm 10.00 Overcast OVC011 59.9 49.1 68% 29.95 0.0
08 05:15 Calm 10.00 Overcast OVC011 60.1 49.6 69% 29.95 0.0
08 04:55 SE 7 10.00 Overcast OVC015 59.9 49.5 69% 29.95 0.0
08 04:35 S 7 10.00 Overcast BKN015 OVC022 59.7 49.1 68% 29.95 0.0
08 04:15 S 7 10.00 Overcast SCT016 OVC020 59.5 49.5 69% 29.96 0.0
08 03:55 Calm 10.00 Overcast SCT013 BKN020 OVC029 59.2 49.6 71% 29.96 0.0
08 03:35 S 5 10.00 Mostly Cloudy BKN013 BKN020 BKN034 58.5 49.6 73% 29.96 0.0
08 03:15 S 6 10.00 Partly Cloudy SCT036 58.3 49.6 73% 29.97 0.0
08 02:55 S 5 10.00 Partly Cloudy SCT036 58.6 49.6 72% 29.98 0.0
08 02:35 Calm 10.00 Partly Cloudy SCT017 59.9 49.8 70% 29.98 0.0
08 02:15 S 3 10.00 Overcast OVC015 60.6 49.6 67% 29.98 0.0
08 01:55 S 6 10.00 Overcast OVC015 60.8 49.5 66% 29.99 0.0
08 01:35 S 6 10.00 Overcast BKN017 OVC023 61 49.3 66% 29.99 0.0
08 01:15 S 6 10.00 Overcast OVC025 61.3 48.7 63% 29.99 0.0
08 00:55 S 6 10.00 Overcast OVC027 61.7 47.7 60% 30 0.0
08 00:35 S 5 10.00 Overcast OVC027 61.7 46.8 58% 29.99 0.0
08 00:15 S 8 10.00 Overcast OVC025 61.2 45.9 57% 29.99 0.0
07 23:55 S 7 10.00 Mostly Cloudy BKN029 BKN034 60.1 45.1 58% 30 0.0
07 23:35 S 7 10.00 Fair CLR 59.9 44.2 56% 30 0.0
07 23:15 S 8 10.00 Fair CLR 60.6 43.7 54% 30 0.0
07 22:55 S 7 10.00 Partly Cloudy SCT055 61.5 43.2 51% 30.01 0.0
07 22:35 S 9 10.00 Mostly Cloudy BKN065 62.4 43.2 50% 30.01 0.0
07 22:15 S 7 10.00 Partly Cloudy SCT065 63.1 43.7 49% 30.01 0.0
07 21:55 S 8 10.00 Fair CLR 64.2 44.6 49% 29.99 0.0
07 21:35 S 9 10.00 Fair CLR 65.3 44.6 47% 29.99 0.0
07 21:15 S 13 10.00 Fair CLR 66.4 44.8 46% 29.98 0.0
07 20:55 S 14 10.00 Fair CLR 67.5 45 44% 29.98 0.0
07 20:35 S 13 G 17 10.00 Fair CLR 68.7 44.6 42% 29.97 0.0
07 20:15 S 10 10.00 Fair CLR 69.8 44.1 40% 29.96 0.0
07 19:55 S 12 10.00 Partly Cloudy SCT100 70.7 44.6 39% 29.96 0.0
07 19:35 S 14 G 18 10.00 Mostly Cloudy BKN100 72.1 44.4 37% 29.96 0.0
07 19:15 S 14 G 17 10.00 Mostly Cloudy BKN110 73.8 44.2 35% 29.97 0.0
07 18:55 S 15 G 20 10.00 Partly Cloudy SCT110 75.4 43.9 33% 77 29.96 0.0
07 18:35 S 14 10.00 Partly Cloudy SCT110 76.8 40.1 27% 77 29.96 0.0
07 18:15 SE 8 10.00 Partly Cloudy SCT110 76.8 39.2 26% 77 29.96 0.0
07 17:55 SE 8 10.00 Fair CLR 75.9 39.2 27% 77 29.97 0.0
07 17:35 SE 8 10.00 Fair CLR 76.3 39.4 27% 77 29.98 0.0
07 17:15 SE 9 10.00 Fair CLR 76.3 39.4 27% 77 29.98 0.0
07 16:55 SE 8 10.00 Fair CLR 75.4 39.6 28% 77 29.99 0.0
07 16:35 SE 7 10.00 Fair CLR 75 39.9 28% 77 30 0.0
07 16:15 SE 10 10.00 Fair CLR 74.8 40.5 29% 30.01 0.0
07 15:35 E 5 5.00 Fair with Haze CLR 73 40.6 31% 30.02 0.0
07 15:15 E 6 10.00 Fair CLR 72.1 40.5 32% 30.04 0.0
07 14:55 SE 5 10.00 Fair CLR 71.6 40.5 32% 30.04 0.0
07 14:35 E 7 10.00 Fair CLR 70.3 41.2 35% 30.05 0.0
07 14:15 E 6 7.00 Fair CLR 69.6 40.8 35% 30.06 0.0
07 13:55 SE 3 10.00 Fair CLR 68.5 40.3 36% 30.07 0.0
07 13:35 Calm 10.00 Fair CLR 68 40.6 37% 30.08 0.0
07 13:15 E 7 10.00 Fair CLR 66.7 40.5 38% 30.09 0.0
07 12:55 E 8 10.00 Fair CLR 65.8 40.1 39% 30.1 0.0
07 12:35 E 6 10.00 Fair CLR 64.8 40.6 41% 30.11 0.0
07 12:15 Calm 10.00 Fair CLR 63.9 41 43% 30.12 0.0
07 11:55 NE 8 10.00 Fair CLR 63 41.2 45% 30.13 0.0
07 11:35 E 10 10.00 Fair CLR 61.5 40.8 47% 30.14 0.0
07 11:15 NE 8 10.00 Fair CLR 60.3 41 49% 30.14 0.0
07 10:55 NE 5 10.00 Fair CLR 59.5 41 50% 30.15 0.0
07 10:35 E 8 10.00 Fair CLR 58.5 41.2 53% 30.16 0.0
07 10:15 E 6 10.00 Fair CLR 57.2 41.7 56% 30.16 0.0
07 09:55 E 7 10.00 Fair CLR 56.3 41.9 59% 30.16 0.0
07 09:35 E 8 10.00 Fair CLR 55.2 42.6 63% 30.16 0.0
07 09:15 E 9 10.00 Fair CLR 53.8 42.8 67% 30.16 0.0
07 08:55 E 12 10.00 Fair CLR 52.3 42.4 69% 30.16 0.0
07 08:35 E 7 10.00 Fair CLR 51.1 41.2 69% 30.16 0.0
07 08:15 NE 8 10.00 Fair CLR 49.8 40.1 69% 47 30.16 0.0
07 07:55 NE 8 10.00 Fair CLR 48.9 40.1 72% 46 30.16 0.0
07 07:35 NE 7 10.00 Fair CLR 48 40.1 74% 45 30.15 0.0
07 07:15 NE 6 10.00 Fair CLR 48 40.3 75% 46 30.16 0.0
07 06:55 NE 7 10.00 Fair CLR 48.2 41.2 77% 46 30.15 0.0
07 06:35 NE 10 10.00 Fair CLR 48.6 43.3 82% 45 30.15 0.0
07 06:15 NE 8 10.00 Fair CLR 48.9 44.1 83% 46 30.15 0.0
07 05:55 NE 5 10.00 Fair CLR 49.5 44.4 83% 48 30.16 0.0
07 05:35 NE 7 10.00 Fair CLR 50 44.6 82% 48 30.15 0.0
07 05:15 NE 8 10.00 Fair CLR 50.4 44.6 81% 30.15 0.0
07 04:55 NE 8 10.00 Fair CLR 50.7 44.4 79% 30.14 0.0
07 04:35 NE 9 10.00 Fair CLR 51.3 44.2 77% 30.14 0.0
07 04:15 NE 10 10.00 Partly Cloudy SCT046 51.6 44.2 76% 30.13 0.0
07 03:55 NE 9 10.00 Partly Cloudy SCT046 52.2 44.6 76% 30.12 0.0
07 03:35 NE 9 10.00 Partly Cloudy SCT046 52.7 44.6 74% 30.12 0.0
07 03:15 E 12 10.00 Fair CLR 53.1 44.1 72% 30.12 0.0
07 02:55 E 10 10.00 Fair CLR 53.6 44.1 70% 30.11 0.0
07 02:35 NE 10 10.00 Fair CLR 54.1 43.9 68% 30.11 0.0
07 02:15 E 12 10.00 Fair CLR 54.5 43.9 68% 30.1 0.0
07 01:55 E 13 10.00 Fair CLR 54.9 43.7 66% 30.1 0.0
07 01:35 E 12 10.00 Fair CLR 55.4 43.7 65% 30.09 0.0
07 01:15 E 12 G 16 10.00 Fair CLR 55.9 43.3 63% 30.08 0.0
07 00:55 E 12 10.00 Fair CLR 56.3 43.3 62% 30.07 0.0
07 00:35 E 12 G 18 10.00 Fair CLR 56.8 43.2 60% 30.06 0.0
07 00:15 E 13 10.00 Fair CLR 57.4 43.2 59% 30.05 0.0
06 23:55 E 10 10.00 Fair CLR 58.1 42.8 57% 30.05 0.0
06 23:35 E 12 G 16 10.00 Fair CLR 58.8 42.4 55% 30.04 0.0
06 23:15 E 10 10.00 Fair CLR 59.7 42.3 53% 30.03 0.0
06 22:55 E 15 10.00 Fair CLR 60.6 41.7 50% 30.02 0.0
06 22:35 E 12 10.00 Fair CLR 62.2 40.8 46% 30.02 0.0
06 22:15 E 12 G 17 10.00 Fair CLR 63.1 40.3 43% 30.01 0.0
06 21:55 E 13 G 16 10.00 Fair CLR 63.9 40.3 42% 30 0.0
06 21:35 E 12 10.00 Fair CLR 64.6 40.3 41% 29.99 0.0
06 21:15 E 10 G 17 10.00 Fair CLR 65.3 40.1 40% 29.99 0.0
06 20:55 E 10 G 17 10.00 Fair CLR 66.4 39.9 38% 29.98 0.0
06 20:35 E 14 10.00 Fair CLR 67.6 39.6 36% 29.97 0.0
06 20:15 E 12 10.00 Fair CLR 68.9 39.6 34% 29.95 0.0
06 19:55 E 14 10.00 Fair CLR 70 39.4 33% 29.95 0.0
06 19:35 E 13 10.00 Fair CLR 70.9 39.4 32% 29.95 0.0
06 19:15 E 12 10.00 Fair CLR 71.6 39.4 31% 29.95 0.0
06 18:55 E 14 G 21 10.00 Fair CLR 72.5 39.4 30% 29.94 0.0
06 18:35 E 10 10.00 Fair CLR 73 39.2 29% 29.94 0.0
06 18:15 E 9 10.00 Fair CLR 73 39.4 30% 29.94 0.0
06 17:55 E 9 10.00 Fair CLR 73 39.6 30% 29.94 0.0
06 17:35 E 9 10.00 Fair CLR 72.1 39.7 31% 29.94 0.0
06 17:15 E 6 10.00 Fair CLR 71.6 40.1 32% 29.94 0.0
06 16:55 NE 6 10.00 Fair CLR 70.7 40.6 34% 29.94 0.0
06 16:35 Calm 10.00 Fair CLR 70.2 41.2 35% 29.95 0.0
06 16:15 NE 7 10.00 Fair CLR 68.9 41.4 37% 29.95 0.0
06 15:55 Calm 10.00 Fair CLR 68.4 41.7 38% 29.96 0.0
06 15:35 E 9 10.00 Fair CLR 67.6 42.4 40% 29.96 0.0
06 15:15 E 7 10.00 Fair CLR 66.4 42.4 42% 29.97 0.0
06 14:55 E 6 10.00 Fair CLR 65.7 42.4 43% 29.97 0.0
06 14:35 NE 3 10.00 Fair CLR 64.6 42.6 45% 29.98 0.0
Date Time (cdt) Wind (mph) Vis. (mi.) Weather Sky Cond. Air Dwpt Max. Min. Relative Humidity Wind Chill (°F) Heat Index (°F) altimeter (in) sea level (mb) 1 hr 3 hr 6 hr
6 hour
Temperature (ºF) Pressure Precipitation (in)